createdAt,value
2022-10-04T00:02:22.351Z,9.57
2022-10-04T00:05:08.136Z,9.38
2022-10-04T00:07:40.435Z,9.27
2022-10-04T00:10:42.127Z,9.43
2022-10-04T00:13:19.465Z,9.20
2022-10-04T00:15:50.344Z,9.12
2022-10-04T00:18:45.347Z,9.33
2022-10-04T00:21:11.947Z,9.05
2022-10-04T00:23:38.506Z,9.05
2022-10-04T00:26:35.354Z,9.04
2022-10-04T00:29:37.547Z,9.05
2022-10-04T00:32:10.010Z,9.17
2022-10-04T00:34:36.510Z,9.05
2022-10-04T00:37:03.884Z,9.05
2022-10-04T00:39:33.458Z,8.85
2022-10-04T00:42:25.904Z,8.98
2022-10-04T00:45:02.667Z,8.86
2022-10-04T00:47:31.249Z,8.95
2022-10-04T00:50:07.763Z,8.96
2022-10-04T00:52:42.651Z,8.77
2022-10-04T00:55:20.294Z,8.84
2022-10-04T00:57:51.294Z,8.94
2022-10-04T01:00:19.722Z,9.02
2022-10-04T01:03:12.381Z,9.04
2022-10-04T01:05:47.238Z,8.94
2022-10-04T01:08:18.970Z,8.96
2022-10-04T01:11:03.499Z,8.83
2022-10-04T01:13:37.566Z,8.84
2022-10-04T01:16:16.667Z,8.76
2022-10-04T01:18:43.626Z,8.82
2022-10-04T01:21:19.157Z,8.76
2022-10-04T01:23:48.634Z,8.85
2022-10-04T01:26:27.543Z,8.93
2022-10-04T01:28:54.490Z,8.86
2022-10-04T01:31:21.665Z,8.92
2022-10-04T01:33:48.795Z,8.91
2022-10-04T01:36:15.561Z,8.84
2022-10-04T01:38:42.380Z,8.82
2022-10-04T01:41:12.294Z,8.83
2022-10-04T01:43:44.170Z,8.85
2022-10-04T01:46:27.777Z,8.79
2022-10-04T01:48:57.399Z,8.89
2022-10-04T01:51:29.700Z,8.83
2022-10-04T01:54:07.372Z,8.92
2022-10-04T01:56:45.919Z,8.99
2022-10-04T01:59:23.823Z,8.87
2022-10-04T02:02:07.327Z,8.96
2022-10-04T02:04:38.264Z,8.90
2022-10-04T02:07:12.768Z,8.97
2022-10-04T02:09:43.734Z,8.97
2022-10-04T02:12:15.833Z,8.93
2022-10-04T02:14:52.489Z,9.15
2022-10-04T02:17:23.810Z,9.06
2022-10-04T02:19:50.650Z,9.05
2022-10-04T02:22:18.799Z,8.92
2022-10-04T02:24:48.096Z,9.03
2022-10-04T02:27:14.916Z,9.11
2022-10-04T02:29:41.901Z,8.99
2022-10-04T02:32:10.143Z,9.22
2022-10-04T02:34:37.619Z,9.09
2022-10-04T02:37:05.767Z,9.33
2022-10-04T02:39:37.558Z,8.99
2022-10-04T02:42:13.064Z,8.92
2022-10-04T02:44:51.992Z,8.81
2022-10-04T02:47:26.102Z,8.82
2022-10-04T02:50:00.932Z,8.82
2022-10-04T02:52:46.792Z,8.93
2022-10-04T02:55:15.920Z,8.94
2022-10-04T02:57:43.984Z,8.99
2022-10-04T03:00:16.847Z,8.94
2022-10-04T03:03:09.478Z,8.99
2022-10-04T03:05:38.031Z,8.83
2022-10-04T03:08:05.991Z,8.91
2022-10-04T03:10:33.290Z,8.92
2022-10-04T03:12:59.919Z,9.02
2022-10-04T03:15:26.539Z,9.26
2022-10-04T03:17:53.481Z,8.89
2022-10-04T03:20:20.544Z,9.06
2022-10-04T03:22:52.753Z,8.74
2022-10-04T03:25:26.068Z,9.02
2022-10-04T03:27:52.783Z,9.10
2022-10-04T03:30:19.595Z,8.86
2022-10-04T03:32:47.609Z,8.78
2022-10-04T03:35:30.167Z,8.58
2022-10-04T03:37:58.963Z,8.75
2022-10-04T03:40:30.512Z,8.91
2022-10-04T03:42:59.654Z,9.11
2022-10-04T03:45:28.269Z,9.33
2022-10-04T03:48:03.354Z,9.33
2022-10-04T03:50:38.411Z,8.86
2022-10-04T03:53:31.628Z,9.18
2022-10-04T03:56:04.056Z,8.55
2022-10-04T03:58:32.036Z,8.48
2022-10-04T04:01:06.153Z,8.44
2022-10-04T04:03:53.530Z,8.46
2022-10-04T04:06:22.429Z,8.71
2022-10-04T04:08:53.295Z,8.52
2022-10-04T04:11:28.131Z,8.61
2022-10-04T04:14:08.273Z,8.56
2022-10-04T04:16:37.058Z,8.86
2022-10-04T04:19:13.113Z,8.67
2022-10-04T04:21:41.602Z,8.65
2022-10-04T04:24:19.730Z,8.79
2022-10-04T04:26:51.953Z,8.52
2022-10-04T04:29:32.646Z,8.46
2022-10-04T04:32:06.222Z,8.56
2022-10-04T04:34:35.520Z,8.57
2022-10-04T04:37:04.413Z,8.77
2022-10-04T04:39:32.476Z,8.84
2022-10-04T04:42:03.017Z,8.63
2022-10-04T04:44:29.761Z,8.82
2022-10-04T04:46:56.438Z,8.39
2022-10-04T04:49:23.527Z,8.40
2022-10-04T04:51:52.177Z,8.75
2022-10-04T04:54:23.187Z,8.64
2022-10-04T04:56:52.886Z,8.68
2022-10-04T04:59:22.781Z,8.52
2022-10-04T05:01:49.969Z,8.58
2022-10-04T05:04:22.579Z,8.69
2022-10-04T05:07:05.198Z,8.92
2022-10-04T05:09:31.721Z,8.95
2022-10-04T05:12:05.099Z,8.90
2022-10-04T05:14:31.695Z,9.12
2022-10-04T05:16:58.307Z,9.09
2022-10-04T05:19:29.767Z,9.23
2022-10-04T05:21:59.453Z,9.28
2022-10-04T05:24:37.151Z,9.30
2022-10-04T05:27:15.403Z,9.22
2022-10-04T05:29:58.780Z,9.53
2022-10-04T05:33:03.750Z,9.80
2022-10-04T05:36:10.704Z,9.65
2022-10-04T05:38:49.196Z,9.34
2022-10-04T05:41:22.204Z,9.58
2022-10-04T05:43:50.420Z,9.42
2022-10-04T05:46:29.175Z,9.59
2022-10-04T05:49:19.161Z,9.73
2022-10-04T05:52:05.680Z,9.87
2022-10-04T05:54:34.788Z,9.86
2022-10-04T05:57:01.282Z,9.98
2022-10-04T05:59:58.479Z,10.05
2022-10-04T06:02:50.165Z,9.74
2022-10-04T06:05:28.900Z,9.92
2022-10-04T06:08:09.719Z,10.34
2022-10-04T06:11:13.420Z,10.15
2022-10-04T06:14:01.808Z,10.13
2022-10-04T06:16:28.416Z,10.03
2022-10-04T06:19:00.893Z,10.09
2022-10-04T06:21:43.893Z,10.06
2022-10-04T06:24:16.154Z,10.20
2022-10-04T06:26:53.213Z,10.45
2022-10-04T06:29:33.182Z,10.40
2022-10-04T06:32:28.731Z,10.20
2022-10-04T06:35:09.576Z,10.25
2022-10-04T06:38:23.894Z,10.20
2022-10-04T06:41:21.412Z,10.22
2022-10-04T06:44:02.995Z,10.36
2022-10-04T06:46:41.653Z,10.45
2022-10-04T06:49:42.221Z,10.63
2022-10-04T06:52:17.362Z,10.64
2022-10-04T06:54:56.146Z,10.98
2022-10-04T06:57:31.883Z,11.01
2022-10-04T06:59:58.417Z,10.92
2022-10-04T07:02:46.229Z,10.83
2022-10-04T07:05:18.583Z,10.85
2022-10-04T07:07:50.117Z,10.78
2022-10-04T07:10:28.159Z,10.76
2022-10-04T07:13:03.529Z,11.00
2022-10-04T07:15:49.343Z,11.09
2022-10-04T07:18:42.679Z,11.01
2022-10-04T07:21:14.612Z,10.91
2022-10-04T07:23:50.670Z,10.95
2022-10-04T07:26:48.719Z,11.13
2022-10-04T07:29:21.276Z,11.10
2022-10-04T07:32:05.896Z,11.09
2022-10-04T07:34:44.491Z,11.21
2022-10-04T07:37:13.509Z,11.39
2022-10-04T07:40:00.404Z,11.26
2022-10-04T07:42:38.253Z,11.29
2022-10-04T07:45:10.992Z,11.45
2022-10-04T07:47:37.939Z,11.39
2022-10-04T07:50:26.921Z,11.42
2022-10-04T07:53:09.794Z,11.28
2022-10-04T07:55:48.514Z,11.35
2022-10-04T07:58:45.572Z,11.48
2022-10-04T08:01:46.308Z,11.58
2022-10-04T08:04:15.831Z,11.71
2022-10-04T08:06:59.657Z,11.91
2022-10-04T08:09:42.707Z,11.93
2022-10-04T08:12:18.332Z,11.78
2022-10-04T08:15:13.987Z,11.77
2022-10-04T08:18:02.180Z,11.83
2022-10-04T08:20:48.245Z,12.25
2022-10-04T08:23:45.750Z,12.25
2022-10-04T08:26:21.465Z,12.25
2022-10-04T08:29:14.234Z,12.32
2022-10-04T08:31:50.336Z,12.02
2022-10-04T08:34:50.595Z,11.76
2022-10-04T08:37:39.346Z,11.79
2022-10-04T08:40:27.678Z,11.94
2022-10-04T08:43:03.395Z,12.03
2022-10-04T08:45:57.939Z,12.09
2022-10-04T08:48:43.007Z,12.15
2022-10-04T08:51:24.800Z,12.13
2022-10-04T08:54:19.244Z,12.05
2022-10-04T08:57:15.728Z,12.10
2022-10-04T09:00:01.035Z,11.98
2022-10-04T09:03:01.598Z,11.85
2022-10-04T09:05:46.640Z,12.08
2022-10-04T09:08:31.499Z,11.92
2022-10-04T09:11:09.943Z,11.96
2022-10-04T09:13:51.708Z,12.01
2022-10-04T09:16:24.162Z,12.12
2022-10-04T09:19:30.123Z,12.18
2022-10-04T09:21:56.629Z,12.54
2022-10-04T09:24:44.925Z,12.62
2022-10-04T09:27:53.569Z,12.87
2022-10-04T09:30:17.397Z,13.03
2022-10-04T09:32:50.061Z,12.98
2022-10-04T09:35:36.543Z,13.02
2022-10-04T09:38:45.064Z,13.23
2022-10-04T09:41:14.460Z,13.21
2022-10-04T09:44:24.462Z,13.43
2022-10-04T09:47:10.751Z,14.05
2022-10-04T09:50:06.973Z,14.25
2022-10-04T09:52:57.336Z,14.05
2022-10-04T09:55:41.099Z,13.99
2022-10-04T09:58:22.711Z,14.08
2022-10-04T10:01:03.463Z,14.41
2022-10-04T10:03:42.047Z,14.55
2022-10-04T10:06:30.554Z,14.58
2022-10-04T10:09:11.375Z,14.52
2022-10-04T10:12:15.510Z,13.96
2022-10-04T10:14:42.021Z,13.71
2022-10-04T10:17:17.266Z,13.66
2022-10-04T10:20:02.536Z,13.42
2022-10-04T10:22:53.366Z,13.30
2022-10-04T10:25:38.713Z,13.35
2022-10-04T10:28:23.677Z,13.41
2022-10-04T10:31:23.280Z,13.50
2022-10-04T10:34:30.669Z,13.69
2022-10-04T10:37:10.345Z,13.64
2022-10-04T10:39:43.045Z,13.64
2022-10-04T10:42:31.304Z,13.47
2022-10-04T10:45:16.467Z,13.41
2022-10-04T10:47:43.031Z,12.94
2022-10-04T10:50:15.769Z,13.00
2022-10-04T10:53:16.278Z,13.19
2022-10-04T10:56:16.966Z,13.68
2022-10-04T10:59:18.642Z,14.23
2022-10-04T11:01:51.252Z,14.62
2022-10-04T11:04:55.067Z,14.68
2022-10-04T11:07:52.048Z,14.40
2022-10-04T11:10:51.173Z,14.44
2022-10-04T11:13:43.427Z,14.73
2022-10-04T11:16:54.110Z,15.04
2022-10-04T11:19:23.674Z,15.14
2022-10-04T11:22:20.944Z,15.19
2022-10-04T11:24:56.437Z,15.19
2022-10-04T11:27:34.837Z,15.40
2022-10-04T11:30:15.584Z,14.84
2022-10-04T11:33:03.610Z,14.50
2022-10-04T11:35:48.710Z,14.43
2022-10-04T11:38:27.917Z,14.56
2022-10-04T11:41:26.750Z,14.79
2022-10-04T11:44:28.049Z,14.86
2022-10-04T11:47:41.912Z,14.44
2022-10-04T11:50:39.111Z,13.52
2022-10-04T11:53:46.707Z,13.68
2022-10-04T11:56:51.163Z,13.49
2022-10-04T11:59:23.464Z,13.91
2022-10-04T12:02:08.832Z,13.85
2022-10-04T12:04:38.493Z,14.08
2022-10-04T12:07:22.997Z,14.48
2022-10-04T12:10:01.471Z,14.59
2022-10-04T12:12:52.967Z,14.55
2022-10-04T12:15:31.600Z,14.52
2022-10-04T12:18:40.076Z,14.62
2022-10-04T12:21:15.449Z,14.55
2022-10-04T12:24:06.184Z,14.44
2022-10-04T12:26:55.765Z,14.63
2022-10-04T12:29:25.483Z,14.90
2022-10-04T12:32:00.151Z,14.76
2022-10-04T12:34:38.830Z,14.50
2022-10-04T12:37:18.156Z,15.02
2022-10-04T12:40:09.128Z,14.98
2022-10-04T12:43:00.078Z,15.05
2022-10-04T12:45:57.963Z,14.73
2022-10-04T12:48:27.395Z,14.65
2022-10-04T12:51:28.821Z,14.75
2022-10-04T12:54:20.842Z,14.97
2022-10-04T12:57:16.430Z,14.88
2022-10-04T12:59:54.745Z,14.96
2022-10-04T13:02:27.093Z,14.81
2022-10-04T13:05:19.706Z,14.31
2022-10-04T13:08:11.268Z,14.39
2022-10-04T13:10:56.634Z,14.42
2022-10-04T13:13:23.160Z,14.46
2022-10-04T13:19:16.838Z,14.57
2022-10-04T13:21:43.736Z,14.71
2022-10-04T13:24:28.067Z,14.79
2022-10-04T13:27:05.529Z,14.78
2022-10-04T13:29:53.682Z,14.54
2022-10-04T13:32:29.622Z,14.74
2022-10-04T13:35:18.760Z,15.12
2022-10-04T13:38:26.692Z,15.20
2022-10-04T13:41:17.799Z,15.32
2022-10-04T13:44:42.808Z,15.49
2022-10-04T13:47:14.982Z,15.75
2022-10-04T13:49:53.375Z,15.61
2022-10-04T13:52:57.253Z,15.18
2022-10-04T13:55:33.128Z,15.49
2022-10-04T13:58:15.756Z,15.56
2022-10-04T14:01:00.727Z,15.44
2022-10-04T14:04:03.502Z,15.54
2022-10-04T14:06:32.839Z,15.61
2022-10-04T14:08:59.354Z,15.49
2022-10-04T14:11:50.634Z,15.63
2022-10-04T14:14:31.241Z,15.76
2022-10-04T14:17:52.059Z,15.71
2022-10-04T14:20:24.373Z,15.56
2022-10-04T14:23:09.677Z,15.60
2022-10-04T14:25:55.114Z,15.44
2022-10-04T14:28:36.664Z,15.44
2022-10-04T14:31:12.566Z,15.41
2022-10-04T14:34:20.388Z,15.39
2022-10-04T14:37:09.255Z,15.63
2022-10-04T14:39:38.820Z,15.77
2022-10-04T14:42:28.683Z,15.78
2022-10-04T14:45:14.179Z,15.45
2022-10-04T14:47:59.169Z,15.45
2022-10-04T14:50:34.496Z,14.90
2022-10-04T14:53:19.328Z,14.61
2022-10-04T14:56:13.918Z,14.45
2022-10-04T14:58:49.649Z,14.33
2022-10-04T15:01:27.483Z,14.51
2022-10-04T15:04:23.034Z,14.56
2022-10-04T15:06:55.563Z,14.63
2022-10-04T15:09:55.836Z,14.70
2022-10-04T15:12:51.844Z,14.61
2022-10-04T15:15:22.887Z,14.84
2022-10-04T15:17:52.427Z,14.79
2022-10-04T15:20:28.390Z,14.53
2022-10-04T15:23:32.899Z,14.73
2022-10-04T15:26:18.025Z,14.95
2022-10-04T15:28:50.444Z,15.23
2022-10-04T15:31:50.440Z,15.19
2022-10-04T15:34:25.533Z,14.96
2022-10-04T15:37:13.675Z,14.89
2022-10-04T15:39:40.280Z,14.93
2022-10-04T15:42:21.629Z,14.22
2022-10-04T15:45:15.679Z,14.13
2022-10-04T15:48:06.685Z,14.12
2022-10-04T15:51:05.487Z,14.29
2022-10-04T15:53:50.075Z,13.91
2022-10-04T15:56:41.585Z,14.03
2022-10-04T15:59:35.061Z,13.62
2022-10-04T16:02:07.712Z,13.60
2022-10-04T16:04:44.001Z,13.68
2022-10-04T16:07:31.722Z,13.79
2022-10-04T16:10:20.072Z,13.51
2022-10-04T16:12:46.634Z,13.23
2022-10-04T16:15:40.535Z,13.18
2022-10-04T16:18:37.544Z,13.41
2022-10-04T16:21:10.297Z,13.32
2022-10-04T16:23:38.365Z,13.40
2022-10-04T16:26:17.335Z,13.52
2022-10-04T16:29:31.533Z,13.85
2022-10-04T16:32:19.963Z,13.90
2022-10-04T16:34:47.672Z,13.42
2022-10-04T16:37:53.329Z,13.50
2022-10-04T16:40:32.630Z,13.48
2022-10-04T16:43:27.022Z,13.44
2022-10-04T16:45:53.597Z,12.71
2022-10-04T16:48:26.347Z,12.28
2022-10-04T16:51:02.824Z,12.38
2022-10-04T16:53:59.786Z,12.05
2022-10-04T16:56:31.647Z,12.29
2022-10-04T16:59:13.367Z,12.44
2022-10-04T17:01:39.889Z,12.29
2022-10-04T17:04:30.930Z,12.37
2022-10-04T17:07:00.429Z,12.69
2022-10-04T17:09:47.051Z,12.50
2022-10-04T17:12:51.354Z,12.43
2022-10-04T17:15:38.215Z,12.53
2022-10-04T17:18:31.674Z,12.77
2022-10-04T17:21:25.623Z,12.66
2022-10-04T17:24:08.211Z,12.55
2022-10-04T17:27:19.844Z,12.90
2022-10-04T17:30:17.302Z,12.88
2022-10-04T17:32:46.623Z,12.87
2022-10-04T17:35:34.932Z,12.99
2022-10-04T17:38:10.365Z,12.92
2022-10-04T17:40:59.855Z,12.89
2022-10-04T17:43:42.747Z,12.93
2022-10-04T17:46:39.219Z,12.56
2022-10-04T17:49:28.252Z,12.43
2022-10-04T17:52:04.939Z,12.34
2022-10-04T17:54:34.595Z,12.24
2022-10-04T17:57:04.082Z,12.40
2022-10-04T17:59:40.733Z,12.68
2022-10-04T18:02:42.622Z,12.59
2022-10-04T18:05:20.215Z,12.48
2022-10-04T18:08:11.688Z,12.38
2022-10-04T18:10:48.235Z,12.30
2022-10-04T18:13:26.067Z,11.97
2022-10-04T18:16:19.086Z,12.13
2022-10-04T18:18:46.358Z,12.01
2022-10-04T18:21:15.884Z,12.01
2022-10-04T18:24:00.842Z,11.84
2022-10-04T18:26:33.046Z,11.91
2022-10-04T18:29:01.418Z,11.86
2022-10-04T18:31:38.688Z,11.94
2022-10-04T18:34:14.355Z,11.85
2022-10-04T18:37:04.336Z,11.91
2022-10-04T18:39:33.737Z,11.75
2022-10-04T18:42:24.551Z,11.75
2022-10-04T18:44:59.689Z,11.78
2022-10-04T18:47:35.370Z,11.69
2022-10-04T18:50:22.426Z,11.68
2022-10-04T18:53:28.366Z,11.69
2022-10-04T18:56:08.625Z,11.66
2022-10-04T18:58:53.277Z,11.58
2022-10-04T19:02:12.581Z,11.37
2022-10-04T19:05:00.581Z,11.42
2022-10-04T19:07:52.721Z,11.48
2022-10-04T19:10:40.847Z,11.48
2022-10-04T19:13:13.181Z,11.34
2022-10-04T19:15:41.974Z,11.25
2022-10-04T19:18:33.282Z,11.23
2022-10-04T19:21:26.228Z,11.24
2022-10-04T19:24:40.987Z,11.32
2022-10-04T19:27:20.434Z,11.04
2022-10-04T19:30:12.587Z,10.99
2022-10-04T19:32:59.355Z,10.88
2022-10-04T19:35:49.825Z,10.81
2022-10-04T19:38:28.560Z,10.76
2022-10-04T19:41:04.383Z,10.90
2022-10-04T19:43:32.020Z,10.69
2022-10-04T19:46:32.571Z,10.66
2022-10-04T19:48:59.156Z,10.73
2022-10-04T19:51:31.157Z,10.72
2022-10-04T19:54:15.640Z,10.62
2022-10-04T19:56:47.483Z,10.43
2022-10-04T19:59:17.040Z,10.41
2022-10-04T20:01:43.678Z,10.44
2022-10-04T20:04:15.423Z,10.49
2022-10-04T20:06:53.176Z,10.59
2022-10-04T20:09:31.990Z,10.35
2022-10-04T20:11:59.658Z,10.30
2022-10-04T20:14:26.184Z,10.30
2022-10-04T20:16:52.807Z,10.20
2022-10-04T20:19:21.778Z,9.95
2022-10-04T20:21:49.704Z,9.97
2022-10-04T20:24:18.843Z,9.77
2022-10-04T20:26:50.684Z,9.61
2022-10-04T20:29:38.063Z,9.70
2022-10-04T20:32:05.777Z,9.91
2022-10-04T20:34:50.592Z,9.95
2022-10-04T20:37:17.238Z,9.89
2022-10-04T20:39:43.746Z,9.62
2022-10-04T20:42:25.320Z,9.73
2022-10-04T20:45:06.143Z,9.77
2022-10-04T20:47:47.998Z,9.72
2022-10-04T20:50:25.839Z,9.79
2022-10-04T20:52:55.712Z,9.87
2022-10-04T20:55:24.579Z,9.85
2022-10-04T20:57:51.232Z,9.73
2022-10-04T21:00:20.403Z,9.72
2022-10-04T21:02:47.327Z,9.91
2022-10-04T21:05:24.503Z,9.85
2022-10-04T21:08:24.367Z,9.61
2022-10-04T21:11:05.890Z,9.65
2022-10-04T21:13:40.408Z,9.57
2022-10-04T21:16:06.999Z,9.50
2022-10-04T21:18:33.571Z,9.60
2022-10-04T21:21:00.160Z,9.54
2022-10-04T21:23:32.307Z,9.54
2022-10-04T21:26:18.360Z,9.49
2022-10-04T21:28:44.926Z,9.48
2022-10-04T21:31:11.760Z,9.55
2022-10-04T21:33:38.797Z,9.50
2022-10-04T21:36:06.261Z,9.53
2022-10-04T21:38:32.838Z,9.49
2022-10-04T21:40:59.555Z,9.57
2022-10-04T21:43:26.507Z,9.58
2022-10-04T21:45:53.147Z,9.54
2022-10-04T21:48:19.859Z,9.43
2022-10-04T21:50:46.438Z,9.41
2022-10-04T21:53:13.009Z,9.42
2022-10-04T21:55:39.594Z,9.52
2022-10-04T21:58:06.160Z,9.45
2022-10-04T22:00:32.710Z,9.36
2022-10-04T22:02:59.333Z,9.49
2022-10-04T22:05:26.250Z,9.54
2022-10-04T22:07:52.828Z,9.46
2022-10-04T22:10:19.425Z,9.56
2022-10-04T22:12:46.017Z,9.37
2022-10-04T22:15:12.761Z,9.17
2022-10-04T22:17:39.439Z,9.21
2022-10-04T22:20:06.260Z,9.27
2022-10-04T22:22:36.388Z,9.19
2022-10-04T22:25:17.017Z,9.16
2022-10-04T22:27:44.280Z,9.18
2022-10-04T22:30:31.165Z,9.20
2022-10-04T22:32:59.345Z,9.21
2022-10-04T22:35:30.792Z,9.19
2022-10-04T22:37:57.435Z,9.16
2022-10-04T22:40:25.206Z,8.99
2022-10-04T22:42:54.507Z,9.16
2022-10-04T22:45:27.350Z,8.97
2022-10-04T22:47:57.989Z,8.88
2022-10-04T22:50:36.492Z,8.87
2022-10-04T22:53:16.268Z,8.88
2022-10-04T22:55:42.929Z,8.85
2022-10-04T22:58:18.831Z,8.77
2022-10-04T23:00:45.439Z,8.75
2022-10-04T23:03:32.535Z,8.70
2022-10-04T23:06:00.839Z,8.72
2022-10-04T23:08:28.128Z,8.77
2022-10-04T23:10:56.919Z,8.74
2022-10-04T23:13:25.022Z,8.64
2022-10-04T23:15:52.745Z,8.60
2022-10-04T23:18:19.346Z,8.65
2022-10-04T23:20:55.470Z,8.59
2022-10-04T23:23:22.122Z,8.52
2022-10-04T23:25:48.963Z,8.55
2022-10-04T23:28:17.804Z,8.56
2022-10-04T23:31:00.501Z,8.56
2022-10-04T23:33:27.433Z,8.56
2022-10-04T23:35:54.774Z,8.55
2022-10-04T23:38:23.414Z,8.66
2022-10-04T23:40:50.224Z,8.54
2022-10-04T23:43:24.248Z,8.56
2022-10-04T23:45:52.912Z,8.56
2022-10-04T23:48:24.606Z,8.52
2022-10-04T23:50:56.532Z,8.45
2022-10-04T23:53:25.964Z,8.48
2022-10-04T23:55:55.045Z,8.31
2022-10-04T23:58:25.917Z,8.08
